createdAt,value
2023-01-31T00:01:38.172Z,-0.14
2023-01-31T00:04:09.233Z,-0.12
2023-01-31T00:06:40.263Z,-0.14
2023-01-31T00:09:09.222Z,-0.19
2023-01-31T00:11:36.367Z,-0.22
2023-01-31T00:14:05.012Z,-0.22
2023-01-31T00:16:32.272Z,-0.21
2023-01-31T00:18:59.262Z,-0.29
2023-01-31T00:21:28.548Z,-0.26
2023-01-31T00:23:56.724Z,-0.27
2023-01-31T00:26:32.491Z,-0.23
2023-01-31T00:29:02.113Z,-0.17
2023-01-31T00:31:31.066Z,-0.25
2023-01-31T00:33:58.715Z,-0.11
2023-01-31T00:36:28.371Z,-0.12
2023-01-31T00:38:57.540Z,-0.11
2023-01-31T00:41:26.119Z,-0.05
2023-01-31T00:43:53.019Z,0.00
2023-01-31T00:46:23.936Z,-0.11
2023-01-31T00:48:51.649Z,0.06
2023-01-31T00:51:20.244Z,0.08
2023-01-31T00:53:47.975Z,0.13
2023-01-31T00:56:20.699Z,0.10
2023-01-31T00:58:47.659Z,0.11
2023-01-31T01:01:17.370Z,0.14
2023-01-31T01:03:45.838Z,0.18
2023-01-31T01:06:14.363Z,0.19
2023-01-31T01:08:43.336Z,0.27
2023-01-31T01:11:17.049Z,0.23
2023-01-31T01:13:44.774Z,0.32
2023-01-31T01:16:21.362Z,0.39
2023-01-31T01:18:49.349Z,0.33
2023-01-31T01:21:22.430Z,0.57
2023-01-31T01:23:49.818Z,0.50
2023-01-31T01:26:19.745Z,0.56
2023-01-31T01:28:47.771Z,0.75
2023-01-31T01:31:16.775Z,0.75
2023-01-31T01:33:50.947Z,0.75
2023-01-31T01:36:22.272Z,0.80
2023-01-31T01:38:49.417Z,0.74
2023-01-31T01:41:16.912Z,0.76
2023-01-31T01:43:54.146Z,0.82
2023-01-31T01:46:34.181Z,0.90
2023-01-31T01:49:06.597Z,0.69
2023-01-31T01:51:34.676Z,0.86
2023-01-31T01:54:06.279Z,0.84
2023-01-31T01:56:40.619Z,0.89
2023-01-31T01:59:20.505Z,0.73
2023-01-31T02:01:48.912Z,0.68
2023-01-31T02:04:20.700Z,0.64
2023-01-31T02:06:47.901Z,0.68
2023-01-31T02:09:42.370Z,0.64
2023-01-31T02:12:10.540Z,0.61
2023-01-31T02:14:40.442Z,0.54
2023-01-31T02:17:15.900Z,0.54
2023-01-31T02:20:16.507Z,0.50
2023-01-31T02:22:52.805Z,0.50
2023-01-31T02:25:32.499Z,0.52
2023-01-31T02:28:10.450Z,0.30
2023-01-31T02:30:46.539Z,0.36
2023-01-31T02:33:13.411Z,0.46
2023-01-31T02:35:49.218Z,0.38
2023-01-31T02:38:32.028Z,0.45
2023-01-31T02:41:07.312Z,0.34
2023-01-31T02:44:00.151Z,0.48
2023-01-31T02:46:56.734Z,0.45
2023-01-31T02:49:48.254Z,0.49
2023-01-31T02:52:27.187Z,0.52
2023-01-31T02:55:26.886Z,0.55
2023-01-31T02:57:57.560Z,0.48
2023-01-31T03:00:26.116Z,0.48
2023-01-31T03:02:53.791Z,0.41
2023-01-31T03:05:21.696Z,0.62
2023-01-31T03:07:57.613Z,0.69
2023-01-31T03:10:36.711Z,0.62
2023-01-31T03:13:10.756Z,0.79
2023-01-31T03:16:18.518Z,0.80
2023-01-31T03:18:53.625Z,0.76
2023-01-31T03:21:39.930Z,0.70
2023-01-31T03:24:07.701Z,0.58
2023-01-31T03:26:35.620Z,0.83
2023-01-31T03:29:05.860Z,0.82
2023-01-31T03:31:41.252Z,0.75
2023-01-31T03:34:11.611Z,0.65
2023-01-31T03:37:01.573Z,0.62
2023-01-31T03:39:52.369Z,0.57
2023-01-31T03:42:34.062Z,0.49
2023-01-31T03:45:05.920Z,0.44
2023-01-31T03:47:41.078Z,0.47
2023-01-31T03:50:31.247Z,0.42
2023-01-31T03:53:16.062Z,0.45
2023-01-31T03:55:49.081Z,0.51
2023-01-31T03:58:19.856Z,0.48
2023-01-31T04:00:49.161Z,0.49
2023-01-31T04:03:32.828Z,0.44
2023-01-31T04:05:59.987Z,0.50
2023-01-31T04:08:26.921Z,0.45
2023-01-31T04:11:04.224Z,0.49
2023-01-31T04:13:31.052Z,0.43
2023-01-31T04:15:57.978Z,0.44
2023-01-31T04:18:24.950Z,0.37
2023-01-31T04:20:51.773Z,0.43
2023-01-31T04:23:19.145Z,0.40
2023-01-31T04:25:46.712Z,0.44
2023-01-31T04:28:13.645Z,0.46
2023-01-31T04:30:40.546Z,0.50
2023-01-31T04:33:07.367Z,0.48
2023-01-31T04:35:35.021Z,0.45
2023-01-31T04:38:01.985Z,0.46
2023-01-31T04:40:28.805Z,0.49
2023-01-31T04:42:55.825Z,0.53
2023-01-31T04:45:22.762Z,0.56
2023-01-31T04:47:49.652Z,0.65
2023-01-31T04:50:16.783Z,0.63
2023-01-31T04:52:43.700Z,0.56
2023-01-31T04:55:10.456Z,0.60
2023-01-31T04:57:37.248Z,0.73
2023-01-31T05:00:05.051Z,0.57
2023-01-31T05:02:32.224Z,0.62
2023-01-31T05:04:59.201Z,0.68
2023-01-31T05:07:26.183Z,0.62
2023-01-31T05:09:53.028Z,0.50
2023-01-31T05:12:19.829Z,0.62
2023-01-31T05:14:46.712Z,0.56
2023-01-31T05:17:13.830Z,0.64
2023-01-31T05:19:42.864Z,0.63
2023-01-31T05:22:09.917Z,0.66
2023-01-31T05:24:37.201Z,0.64
2023-01-31T05:27:04.680Z,0.68
2023-01-31T05:29:32.709Z,0.71
2023-01-31T05:32:01.446Z,0.61
2023-01-31T05:34:31.223Z,0.58
2023-01-31T05:36:58.251Z,0.50
2023-01-31T05:39:25.572Z,0.54
2023-01-31T05:41:53.062Z,0.52
2023-01-31T05:44:20.534Z,0.58
2023-01-31T05:46:47.347Z,0.59
2023-01-31T05:49:14.592Z,0.64
2023-01-31T05:51:41.924Z,0.64
2023-01-31T05:54:11.176Z,0.64
2023-01-31T05:56:39.287Z,0.67
2023-01-31T05:59:06.404Z,0.62
2023-01-31T06:01:33.539Z,0.69
2023-01-31T06:04:00.771Z,0.67
2023-01-31T06:06:27.740Z,0.67
2023-01-31T06:08:54.688Z,0.59
2023-01-31T06:11:21.767Z,0.61
2023-01-31T06:13:49.597Z,0.64
2023-01-31T06:16:16.540Z,0.59
2023-01-31T06:18:43.659Z,0.50
2023-01-31T06:21:12.190Z,0.73
2023-01-31T06:23:39.323Z,0.74
2023-01-31T06:26:06.272Z,0.77
2023-01-31T06:28:33.107Z,0.78
2023-01-31T06:31:07.073Z,0.82
2023-01-31T06:33:44.773Z,0.93
2023-01-31T06:36:16.667Z,0.99
2023-01-31T06:38:45.422Z,1.15
2023-01-31T06:41:13.037Z,1.25
2023-01-31T06:43:39.902Z,1.19
2023-01-31T06:46:06.704Z,1.21
2023-01-31T06:48:33.630Z,1.31
2023-01-31T06:51:00.478Z,1.34
2023-01-31T06:53:27.428Z,1.37
2023-01-31T06:55:54.342Z,1.42
2023-01-31T06:58:21.237Z,1.46
2023-01-31T07:00:48.127Z,1.47
2023-01-31T07:03:15.194Z,1.50
2023-01-31T07:05:42.780Z,1.55
2023-01-31T07:08:09.666Z,1.53
2023-01-31T07:10:36.574Z,1.64
2023-01-31T07:13:03.607Z,1.57
2023-01-31T07:15:30.496Z,1.59
2023-01-31T07:17:59.428Z,1.73
2023-01-31T07:20:26.908Z,1.80
2023-01-31T07:22:58.123Z,1.80
2023-01-31T07:25:25.436Z,1.75
2023-01-31T07:27:52.792Z,1.66
2023-01-31T07:30:19.927Z,1.69
2023-01-31T07:32:47.011Z,1.77
2023-01-31T07:35:13.963Z,1.76
2023-01-31T07:37:43.445Z,1.79
2023-01-31T07:40:12.007Z,1.82
2023-01-31T07:42:39.608Z,1.85
2023-01-31T07:45:22.510Z,2.03
2023-01-31T07:47:59.057Z,2.10
2023-01-31T07:50:29.824Z,2.27
2023-01-31T07:52:58.811Z,2.21
2023-01-31T07:55:27.040Z,2.07
2023-01-31T07:57:53.886Z,2.27
2023-01-31T08:00:39.553Z,2.31
2023-01-31T08:03:24.894Z,2.27
2023-01-31T08:05:51.790Z,2.36
2023-01-31T08:08:18.760Z,2.41
2023-01-31T08:10:47.381Z,2.51
2023-01-31T08:13:14.286Z,2.54
2023-01-31T08:15:41.144Z,2.55
2023-01-31T08:18:08.077Z,2.52
2023-01-31T08:20:37.746Z,2.51
2023-01-31T08:23:04.739Z,2.69
2023-01-31T08:25:32.182Z,2.78
2023-01-31T08:28:00.468Z,2.88
2023-01-31T08:30:28.530Z,2.95
2023-01-31T08:32:56.283Z,3.02
2023-01-31T08:35:23.215Z,2.98
2023-01-31T08:37:50.020Z,2.94
2023-01-31T08:40:17.089Z,3.00
2023-01-31T08:42:44.163Z,3.03
2023-01-31T08:45:11.111Z,2.94
2023-01-31T08:47:39.072Z,2.97
2023-01-31T08:50:15.868Z,3.05
2023-01-31T08:53:00.408Z,2.96
2023-01-31T08:55:29.181Z,2.97
2023-01-31T08:58:00.021Z,2.95
2023-01-31T09:00:27.513Z,3.06
2023-01-31T09:02:59.567Z,3.01
2023-01-31T09:05:28.865Z,3.06
2023-01-31T09:07:55.855Z,3.07
2023-01-31T09:10:23.352Z,3.01
2023-01-31T09:12:50.458Z,2.99
2023-01-31T09:15:17.639Z,3.03
2023-01-31T09:17:44.467Z,3.09
2023-01-31T09:20:11.722Z,3.08
2023-01-31T09:22:38.751Z,3.14
2023-01-31T09:25:06.282Z,3.16
2023-01-31T09:27:33.388Z,3.16
2023-01-31T09:30:00.287Z,3.12
2023-01-31T09:32:27.320Z,3.08
2023-01-31T09:34:54.310Z,2.97
2023-01-31T09:37:21.281Z,2.98
2023-01-31T09:39:48.274Z,3.17
2023-01-31T09:42:24.636Z,3.13
2023-01-31T09:45:05.633Z,3.32
2023-01-31T09:47:44.427Z,3.33
2023-01-31T09:50:17.443Z,3.21
2023-01-31T09:52:44.453Z,3.12
2023-01-31T09:55:18.375Z,3.44
2023-01-31T09:58:09.210Z,2.60
2023-01-31T10:01:11.941Z,3.48
2023-01-31T10:04:07.051Z,3.49
2023-01-31T10:06:49.199Z,3.65
2023-01-31T10:09:15.998Z,3.99
2023-01-31T10:11:58.307Z,4.08
2023-01-31T10:14:34.263Z,4.07
2023-01-31T10:17:11.660Z,3.96
2023-01-31T10:20:07.100Z,3.97
2023-01-31T10:22:46.114Z,3.79
2023-01-31T10:25:35.368Z,3.82
2023-01-31T10:28:15.586Z,3.86
2023-01-31T10:31:02.636Z,3.89
2023-01-31T10:33:50.771Z,3.90
2023-01-31T10:36:43.108Z,3.90
2023-01-31T10:39:25.242Z,3.84
2023-01-31T10:42:03.864Z,3.80
2023-01-31T10:44:54.611Z,3.47
2023-01-31T10:47:33.103Z,3.61
2023-01-31T10:50:00.303Z,3.75
2023-01-31T10:52:50.663Z,3.79
2023-01-31T10:55:42.351Z,3.63
2023-01-31T10:58:15.139Z,3.37
2023-01-31T11:00:42.603Z,3.56
2023-01-31T11:03:12.907Z,3.56
2023-01-31T11:06:00.279Z,3.74
2023-01-31T11:08:38.295Z,3.88
2023-01-31T11:11:20.079Z,3.88
2023-01-31T11:14:06.346Z,3.99
2023-01-31T11:16:40.788Z,4.05
2023-01-31T11:19:27.549Z,4.01
2023-01-31T11:21:55.085Z,3.74
2023-01-31T11:24:24.572Z,3.88
2023-01-31T11:27:00.805Z,4.01
2023-01-31T11:29:30.665Z,3.86
2023-01-31T11:32:00.215Z,3.91
2023-01-31T11:34:30.886Z,3.95
2023-01-31T11:37:13.966Z,4.00
2023-01-31T11:39:41.211Z,3.82
2023-01-31T11:42:12.257Z,4.04
2023-01-31T11:45:00.950Z,4.13
2023-01-31T11:47:40.120Z,3.81
2023-01-31T11:50:08.296Z,3.81
2023-01-31T11:52:35.761Z,3.93
2023-01-31T11:55:08.607Z,4.22
2023-01-31T11:57:38.393Z,4.12
2023-01-31T12:00:31.172Z,4.19
2023-01-31T12:03:05.652Z,4.10
2023-01-31T12:05:41.220Z,3.85
2023-01-31T12:08:38.919Z,3.74
2023-01-31T12:11:07.331Z,3.79
2023-01-31T12:14:00.578Z,3.73
2023-01-31T12:16:30.490Z,3.58
2023-01-31T12:19:12.167Z,3.73
2023-01-31T12:22:12.478Z,3.68
2023-01-31T12:24:56.740Z,3.77
2023-01-31T12:28:01.883Z,3.73
2023-01-31T12:30:37.686Z,4.01
2023-01-31T12:33:35.534Z,3.94
2023-01-31T12:36:11.380Z,4.15
2023-01-31T12:38:44.340Z,3.93
2023-01-31T12:41:36.638Z,4.04
2023-01-31T12:44:25.135Z,4.11
2023-01-31T12:47:16.898Z,3.96
2023-01-31T12:49:49.917Z,4.05
2023-01-31T12:52:19.874Z,4.10
2023-01-31T12:55:11.386Z,4.10
2023-01-31T12:57:56.366Z,4.24
2023-01-31T13:00:53.557Z,4.25
2023-01-31T13:03:55.526Z,4.42
2023-01-31T13:06:32.834Z,4.62
2023-01-31T13:09:25.321Z,4.65
2023-01-31T13:11:55.126Z,4.87
2023-01-31T13:14:26.766Z,5.00
2023-01-31T13:17:00.421Z,5.09
2023-01-31T13:19:30.265Z,5.19
2023-01-31T13:22:06.222Z,5.26
2023-01-31T13:24:42.790Z,5.30
2023-01-31T13:27:12.220Z,5.25
2023-01-31T13:29:44.278Z,5.26
2023-01-31T13:32:14.725Z,5.21
2023-01-31T13:34:52.078Z,5.26
2023-01-31T13:37:21.395Z,5.17
2023-01-31T13:40:01.210Z,5.11
2023-01-31T13:42:28.453Z,5.18
2023-01-31T13:45:00.144Z,4.94
2023-01-31T13:47:43.911Z,5.02
2023-01-31T13:50:31.072Z,5.01
2023-01-31T13:53:02.125Z,5.01
2023-01-31T13:55:46.149Z,4.88
2023-01-31T13:58:29.057Z,4.74
2023-01-31T14:01:22.820Z,4.69
2023-01-31T14:04:18.041Z,4.63
2023-01-31T14:06:56.852Z,4.55
2023-01-31T14:09:29.547Z,4.58
2023-01-31T14:11:58.926Z,4.55
2023-01-31T14:14:29.673Z,4.44
2023-01-31T14:16:56.914Z,4.27
2023-01-31T14:19:23.711Z,4.19
2023-01-31T14:22:03.876Z,4.07
2023-01-31T14:24:56.727Z,4.00
2023-01-31T14:27:34.918Z,3.97
2023-01-31T14:30:07.832Z,4.00
2023-01-31T14:32:44.876Z,3.85
2023-01-31T14:35:19.983Z,3.90
2023-01-31T14:38:05.653Z,3.92
2023-01-31T14:40:35.391Z,3.88
2023-01-31T14:43:17.499Z,3.91
2023-01-31T14:45:56.356Z,3.88
2023-01-31T14:49:00.649Z,3.90
2023-01-31T14:52:05.823Z,3.89
2023-01-31T14:55:09.781Z,3.87
2023-01-31T14:57:45.792Z,3.85
2023-01-31T15:00:12.539Z,3.89
2023-01-31T15:02:54.534Z,3.79
2023-01-31T15:05:36.573Z,3.83
2023-01-31T15:08:26.587Z,3.82
2023-01-31T15:11:17.439Z,3.83
2023-01-31T15:13:51.692Z,3.80
2023-01-31T15:16:31.167Z,3.77
2023-01-31T15:19:12.514Z,3.72
2023-01-31T15:21:55.695Z,3.58
2023-01-31T15:24:38.999Z,3.59
2023-01-31T15:27:28.760Z,3.54
2023-01-31T15:29:59.011Z,3.55
2023-01-31T15:32:40.949Z,3.49
2023-01-31T15:35:19.237Z,3.40
2023-01-31T15:37:48.020Z,3.41
2023-01-31T15:40:24.064Z,3.37
2023-01-31T15:42:51.679Z,3.38
2023-01-31T15:45:30.366Z,3.34
2023-01-31T15:48:00.143Z,3.33
2023-01-31T15:50:29.308Z,3.26
2023-01-31T15:52:57.212Z,3.11
2023-01-31T15:55:24.389Z,3.07
2023-01-31T15:58:00.267Z,2.97
2023-01-31T16:00:33.097Z,2.87
2023-01-31T16:03:01.121Z,2.82
2023-01-31T16:05:39.434Z,2.74
2023-01-31T16:08:38.871Z,2.71
2023-01-31T16:11:10.290Z,2.49
2023-01-31T16:13:39.903Z,2.57
2023-01-31T16:16:14.192Z,2.41
2023-01-31T16:18:45.273Z,2.53
2023-01-31T16:21:42.731Z,2.47
2023-01-31T16:24:17.418Z,2.43
2023-01-31T16:27:09.227Z,2.32
2023-01-31T16:30:00.412Z,2.39
2023-01-31T16:32:40.323Z,2.31
2023-01-31T16:35:19.700Z,2.38
2023-01-31T16:37:47.321Z,2.27
2023-01-31T16:40:17.297Z,2.28
2023-01-31T16:42:44.862Z,2.26
2023-01-31T16:45:34.848Z,2.16
2023-01-31T16:48:29.296Z,2.24
2023-01-31T16:51:35.652Z,2.22
2023-01-31T16:54:28.754Z,2.12
2023-01-31T16:57:01.961Z,2.20
2023-01-31T16:59:35.040Z,2.20
2023-01-31T17:02:15.758Z,1.64
2023-01-31T17:04:45.672Z,2.14
2023-01-31T17:07:35.142Z,2.16
2023-01-31T17:10:09.511Z,2.26
2023-01-31T17:12:40.347Z,2.28
2023-01-31T17:15:19.970Z,2.32
2023-01-31T17:17:48.099Z,2.34
2023-01-31T17:20:20.749Z,2.42
2023-01-31T17:22:56.868Z,2.26
2023-01-31T17:25:32.924Z,2.40
2023-01-31T17:27:59.832Z,2.31
2023-01-31T17:30:31.427Z,2.35
2023-01-31T17:32:59.566Z,2.40
2023-01-31T17:35:37.729Z,2.47
2023-01-31T17:38:05.345Z,2.51
2023-01-31T17:40:32.777Z,2.51
2023-01-31T17:43:04.662Z,2.50
2023-01-31T17:45:33.213Z,2.48
2023-01-31T17:48:03.894Z,2.45
2023-01-31T17:50:31.677Z,2.55
2023-01-31T17:52:58.895Z,2.54
2023-01-31T17:55:25.851Z,2.50
2023-01-31T17:57:52.924Z,2.41
2023-01-31T18:00:21.148Z,2.45
2023-01-31T18:02:48.076Z,2.44
2023-01-31T18:05:20.473Z,2.40
2023-01-31T18:07:51.619Z,2.42
2023-01-31T18:10:18.583Z,2.36
2023-01-31T18:12:45.673Z,2.28
2023-01-31T18:15:12.779Z,2.24
2023-01-31T18:17:39.769Z,2.30
2023-01-31T18:20:07.361Z,2.34
2023-01-31T18:22:34.266Z,2.33
2023-01-31T18:25:01.135Z,2.35
2023-01-31T18:27:28.134Z,2.40
2023-01-31T18:29:55.804Z,2.24
2023-01-31T18:32:22.718Z,2.20
2023-01-31T18:34:49.579Z,2.17
2023-01-31T18:37:20.371Z,2.19
2023-01-31T18:39:49.192Z,2.17
2023-01-31T18:42:17.152Z,2.17
2023-01-31T18:44:45.095Z,2.13
2023-01-31T18:47:13.201Z,2.10
2023-01-31T18:49:40.240Z,2.08
2023-01-31T18:52:07.839Z,2.09
2023-01-31T18:54:37.600Z,2.14
2023-01-31T18:57:05.257Z,2.13
2023-01-31T18:59:34.783Z,2.10
2023-01-31T19:02:01.832Z,2.00
2023-01-31T19:04:28.845Z,2.15
2023-01-31T19:06:55.758Z,2.07
2023-01-31T19:09:23.069Z,2.03
2023-01-31T19:11:50.033Z,2.03
2023-01-31T19:14:16.931Z,2.03
2023-01-31T19:16:45.060Z,2.09
2023-01-31T19:19:12.603Z,2.03
2023-01-31T19:21:39.953Z,2.06
2023-01-31T19:24:13.368Z,2.03
2023-01-31T19:26:42.669Z,2.05
2023-01-31T19:29:13.606Z,2.11
2023-01-31T19:31:40.563Z,1.96
2023-01-31T19:34:08.116Z,1.97
2023-01-31T19:36:40.543Z,2.08
2023-01-31T19:39:10.936Z,2.04
2023-01-31T19:41:38.744Z,2.10
2023-01-31T19:44:06.395Z,2.08
2023-01-31T19:46:35.891Z,2.09
2023-01-31T19:49:03.063Z,2.13
2023-01-31T19:51:30.050Z,2.16
2023-01-31T19:53:59.203Z,2.17
2023-01-31T19:56:27.191Z,2.19
2023-01-31T19:58:54.294Z,2.22
2023-01-31T20:01:21.396Z,2.31
2023-01-31T20:03:48.306Z,2.28
2023-01-31T20:06:18.476Z,2.36
2023-01-31T20:08:52.695Z,2.34
2023-01-31T20:11:20.133Z,2.46
2023-01-31T20:13:49.917Z,2.42
2023-01-31T20:16:17.665Z,2.41
2023-01-31T20:18:44.906Z,2.45
2023-01-31T20:21:16.758Z,2.46
2023-01-31T20:23:44.089Z,2.54
2023-01-31T20:26:16.172Z,2.56
2023-01-31T20:28:44.454Z,2.59
2023-01-31T20:31:13.367Z,2.52
2023-01-31T20:33:40.423Z,2.61
2023-01-31T20:36:07.794Z,2.55
2023-01-31T20:38:34.832Z,2.57
2023-01-31T20:41:01.696Z,2.37
2023-01-31T20:43:28.572Z,2.47
2023-01-31T20:46:03.302Z,2.43
2023-01-31T20:48:30.251Z,2.40
2023-01-31T20:50:58.216Z,2.32
2023-01-31T20:53:28.236Z,2.32
2023-01-31T20:56:06.409Z,2.29
2023-01-31T20:58:36.038Z,2.28
2023-01-31T21:01:06.069Z,2.27
2023-01-31T21:03:34.292Z,2.29
2023-01-31T21:06:07.440Z,2.39
2023-01-31T21:08:37.537Z,2.23
2023-01-31T21:11:07.996Z,2.33
2023-01-31T21:13:35.877Z,2.31
2023-01-31T21:16:05.452Z,2.21
2023-01-31T21:18:37.063Z,2.16
2023-01-31T21:21:09.578Z,2.15
2023-01-31T21:23:38.195Z,2.14
2023-01-31T21:26:07.686Z,2.16
2023-01-31T21:28:35.215Z,2.13
2023-01-31T21:31:07.912Z,2.16
2023-01-31T21:33:34.916Z,2.24
2023-01-31T21:36:09.861Z,2.28
2023-01-31T21:38:37.312Z,2.40
2023-01-31T21:41:23.323Z,2.24
2023-01-31T21:43:50.194Z,2.40
2023-01-31T21:46:17.343Z,2.40
2023-01-31T21:48:44.292Z,2.50
2023-01-31T21:51:14.638Z,2.52
2023-01-31T21:53:42.249Z,2.54
2023-01-31T21:56:14.756Z,2.57
2023-01-31T21:58:42.748Z,2.55
2023-01-31T22:01:18.399Z,2.52
2023-01-31T22:03:50.496Z,2.47
2023-01-31T22:06:21.193Z,2.51
2023-01-31T22:08:54.761Z,2.51
2023-01-31T22:11:22.198Z,2.51
2023-01-31T22:13:52.686Z,2.57
2023-01-31T22:16:22.297Z,2.51
2023-01-31T22:19:08.261Z,2.45
2023-01-31T22:21:37.385Z,2.53
2023-01-31T22:24:06.646Z,2.53
2023-01-31T22:26:37.153Z,2.56
2023-01-31T22:29:07.495Z,2.51
2023-01-31T22:31:35.032Z,2.49
2023-01-31T22:34:03.694Z,2.49
2023-01-31T22:36:30.869Z,2.48
2023-01-31T22:38:57.787Z,2.46
2023-01-31T22:41:24.929Z,2.33
2023-01-31T22:43:52.825Z,2.42
2023-01-31T22:46:23.424Z,2.28
2023-01-31T22:48:51.239Z,2.38
2023-01-31T22:51:27.209Z,2.33
2023-01-31T22:53:55.986Z,2.50
2023-01-31T22:56:27.084Z,2.48
2023-01-31T22:59:03.397Z,2.51
2023-01-31T23:01:35.379Z,2.56
2023-01-31T23:04:05.010Z,2.50
2023-01-31T23:06:32.313Z,2.50
2023-01-31T23:08:59.185Z,2.48
2023-01-31T23:11:26.691Z,2.51
2023-01-31T23:13:53.960Z,2.44
2023-01-31T23:16:43.121Z,2.46
2023-01-31T23:19:10.878Z,2.45
2023-01-31T23:21:40.276Z,2.48
2023-01-31T23:24:08.229Z,2.32
2023-01-31T23:26:35.348Z,2.35
2023-01-31T23:29:02.274Z,2.29
2023-01-31T23:31:29.483Z,2.33
2023-01-31T23:33:56.414Z,2.37
2023-01-31T23:36:23.231Z,2.39
2023-01-31T23:38:50.036Z,2.33
2023-01-31T23:41:16.874Z,2.26
2023-01-31T23:43:43.800Z,2.40
2023-01-31T23:46:10.695Z,2.37
2023-01-31T23:48:39.549Z,2.35
2023-01-31T23:51:06.459Z,2.30
2023-01-31T23:53:33.216Z,2.32
2023-01-31T23:56:00.037Z,2.29
2023-01-31T23:58:27.132Z,2.28
